首页
METAR-TAF:

METAR-TAF

机场 :

Dryden, 安大略省, 加拿大

纬度: 49-50N, 经度: 092-45W, 海拔: 413米

当前天气观测

该预报发布于1小时和0分钟前的02:00 UTC
风速5节,风向
温度 17°C
湿度 36%
气压 1017 hPa
能見度: 14.5公里
散云层高于19000英尺

METAR: CYHD 010200Z AUTO 19005KT 9SM SCT190 17/02 A3004 RMK SLP180 DENSITY ALT 1800FT

时间: 22:00 (03:00 UTC)

预报

该预报发布于1小时和35分钟前的01:25 UTC
预报有效从01日的 02点(UTC)到 01日的 14点(UTC)
风速5节,风向西南
能見度: 10公里
散云层高于24000英尺
从 01日的 0900点(UTC)
风速5节,风向南转南东
能見度: 10公里
散云层高于6000英尺
多云层高于16000英尺

TAF: CYHD 010125Z 0102/0114 23005KT P6SM SCT240 FM010900 15005KT P6SM SCT060 BKN160 RMK FCST BASED ON AUTO OBS. NXT FCST BY 010800Z

超过4000个机场的气象观测和天气预报(METAR&TAF报告)。

可查询的气象台以黄色和红色小点在地图上表示。

将鼠标移到小点上方,可查看气象台名称。

然后点击查看天气观测和预报。

如需切换地图:点击带黑十字的绿色按钮放大地图;点击带横线的绿色按钮缩小地图;或者点击绿色箭头查看邻近地区的地图。


METAR-TAF: